createdAt,value
2024-03-02T00:00:53.235Z,12.88
2024-03-02T00:03:21.646Z,12.18
2024-03-02T00:05:53.608Z,12.50
2024-03-02T00:08:27.863Z,12.63
2024-03-02T00:11:00.126Z,12.23
2024-03-02T00:13:28.473Z,13.00
2024-03-02T00:15:57.756Z,13.10
2024-03-02T00:18:29.024Z,15.35
2024-03-02T00:20:58.358Z,15.82
2024-03-02T00:23:31.874Z,17.75
2024-03-02T00:26:01.154Z,17.10
2024-03-02T00:28:31.441Z,16.15
2024-03-02T00:31:01.174Z,17.10
2024-03-02T00:33:32.760Z,15.85
2024-03-02T00:36:01.907Z,17.67
2024-03-02T00:38:31.497Z,17.55
2024-03-02T00:41:01.057Z,16.83
2024-03-02T00:43:47.289Z,16.75
2024-03-02T00:46:18.562Z,19.67
2024-03-02T00:49:06.075Z,18.67
2024-03-02T00:51:36.914Z,20.83
2024-03-02T00:54:07.761Z,20.83
2024-03-02T00:56:36.858Z,23.00
2024-03-02T00:59:04.842Z,20.48
2024-03-02T01:01:32.809Z,19.83
2024-03-02T01:04:00.778Z,21.55
2024-03-02T01:06:28.876Z,21.23
2024-03-02T01:08:56.644Z,21.80
2024-03-02T01:11:25.905Z,21.42
2024-03-02T01:13:54.285Z,19.15
2024-03-02T01:16:22.453Z,19.17
2024-03-02T01:18:50.520Z,19.55
2024-03-02T01:21:18.522Z,18.48
2024-03-02T01:23:46.344Z,18.95
2024-03-02T01:26:16.244Z,17.95
2024-03-02T01:28:45.347Z,18.27
2024-03-02T01:31:13.130Z,18.73
2024-03-02T01:33:40.964Z,20.17
2024-03-02T01:36:09.745Z,20.38
2024-03-02T01:38:37.589Z,19.67
2024-03-02T01:41:05.595Z,19.75
2024-03-02T01:43:33.362Z,19.20
2024-03-02T01:46:02.646Z,19.45
2024-03-02T01:48:32.879Z,18.33
2024-03-02T01:51:00.663Z,18.40
2024-03-02T01:53:29.463Z,19.33
2024-03-02T01:55:57.283Z,18.80
2024-03-02T01:58:25.045Z,18.27
2024-03-02T02:00:52.995Z,18.35
2024-03-02T02:03:22.233Z,18.42
2024-03-02T02:05:50.033Z,18.88
2024-03-02T02:08:17.851Z,19.27
2024-03-02T02:10:45.900Z,18.40
2024-03-02T02:13:16.797Z,19.48
2024-03-02T02:15:44.702Z,19.40
2024-03-02T02:18:12.515Z,19.67
2024-03-02T02:20:41.772Z,18.60
2024-03-02T02:23:11.471Z,17.92
2024-03-02T02:25:39.347Z,19.50
2024-03-02T02:28:13.041Z,18.17
2024-03-02T02:30:40.886Z,17.95
2024-03-02T02:33:08.764Z,19.00
2024-03-02T02:35:36.796Z,18.35
2024-03-02T02:38:05.326Z,19.05
2024-03-02T02:40:34.493Z,18.60
2024-03-02T02:43:02.313Z,18.13
2024-03-02T02:45:30.147Z,18.77
2024-03-02T02:47:57.961Z,18.10
2024-03-02T02:50:25.838Z,18.10
2024-03-02T02:52:53.600Z,17.55
2024-03-02T02:55:21.455Z,18.40
2024-03-02T02:57:50.728Z,17.80
2024-03-02T03:00:21.359Z,19.02
2024-03-02T03:02:51.933Z,19.77
2024-03-02T03:05:20.330Z,18.30
2024-03-02T03:07:50.964Z,22.52
2024-03-02T03:10:19.829Z,21.13
2024-03-02T03:12:47.917Z,20.45
2024-03-02T03:15:18.308Z,19.23
2024-03-02T03:17:47.349Z,19.02
2024-03-02T03:20:16.571Z,22.45
2024-03-02T03:22:44.734Z,21.75
2024-03-02T03:25:12.579Z,20.10
2024-03-02T03:27:40.401Z,20.98
2024-03-02T03:30:09.526Z,21.25
2024-03-02T03:32:38.693Z,19.80
2024-03-02T03:35:07.704Z,19.75
2024-03-02T03:37:36.141Z,19.98
2024-03-02T03:40:04.120Z,20.10
2024-03-02T03:42:32.044Z,18.73
2024-03-02T03:45:00.032Z,18.08
2024-03-02T03:47:27.828Z,18.55
2024-03-02T03:49:59.628Z,18.85
2024-03-02T03:52:27.514Z,17.88
2024-03-02T03:54:55.325Z,19.15
2024-03-02T03:57:26.032Z,19.13
2024-03-02T03:59:54.013Z,19.17
2024-03-02T04:02:21.840Z,19.38
2024-03-02T04:04:49.637Z,19.08
2024-03-02T04:07:19.199Z,18.63
2024-03-02T04:09:47.040Z,19.48
2024-03-02T04:12:15.158Z,20.17
2024-03-02T04:14:43.957Z,18.20
2024-03-02T04:17:11.851Z,19.52
2024-03-02T04:19:39.688Z,19.88
2024-03-02T04:22:15.284Z,20.38
2024-03-02T04:24:48.256Z,21.45
2024-03-02T04:27:16.075Z,20.30
2024-03-02T04:29:43.942Z,22.13
2024-03-02T04:32:11.738Z,22.33
2024-03-02T04:34:39.543Z,20.75
2024-03-02T04:37:08.032Z,20.27
2024-03-02T04:39:37.028Z,21.50
2024-03-02T04:42:06.873Z,20.08
2024-03-02T04:44:34.692Z,22.55
2024-03-02T04:47:02.966Z,20.80
2024-03-02T04:49:31.302Z,19.90
2024-03-02T04:51:59.359Z,21.90
2024-03-02T04:54:27.477Z,20.77
2024-03-02T04:56:55.270Z,21.42
2024-03-02T04:59:24.373Z,21.77
2024-03-02T05:01:52.193Z,21.27
2024-03-02T05:04:19.992Z,23.35
2024-03-02T05:06:53.813Z,23.80
2024-03-02T05:09:21.905Z,23.05
2024-03-02T05:12:10.812Z,24.60
2024-03-02T05:14:40.576Z,25.70
2024-03-02T05:17:08.424Z,24.70
2024-03-02T05:19:36.230Z,24.48
2024-03-02T05:22:04.366Z,21.40
2024-03-02T05:24:32.311Z,21.40
2024-03-02T05:27:00.764Z,21.60
2024-03-02T05:29:28.554Z,19.67
2024-03-02T05:31:57.756Z,19.77
2024-03-02T05:34:25.631Z,19.27
2024-03-02T05:36:53.498Z,19.45
2024-03-02T05:39:21.472Z,20.63
2024-03-02T05:41:49.250Z,19.58
2024-03-02T05:44:17.442Z,22.13
2024-03-02T05:46:45.418Z,22.60
2024-03-02T05:49:14.552Z,23.13
2024-03-02T05:51:42.749Z,26.58
2024-03-02T05:54:10.548Z,27.30
2024-03-02T05:56:39.321Z,24.95
2024-03-02T05:59:13.905Z,24.48
2024-03-02T06:01:42.158Z,26.83
2024-03-02T06:04:10.096Z,26.27
2024-03-02T06:06:39.790Z,26.33
2024-03-02T06:09:09.417Z,31.48
2024-03-02T06:11:37.608Z,30.38
2024-03-02T06:14:05.718Z,31.73
2024-03-02T06:16:33.525Z,33.75
2024-03-02T06:19:01.748Z,31.63
2024-03-02T06:21:30.109Z,27.15
2024-03-02T06:23:59.287Z,27.00
2024-03-02T06:26:27.067Z,25.50
2024-03-02T06:28:54.876Z,23.50
2024-03-02T06:31:22.732Z,20.23
2024-03-02T06:33:50.644Z,22.38
2024-03-02T06:36:18.495Z,22.55
2024-03-02T06:38:46.336Z,23.27
2024-03-02T06:41:15.485Z,24.58
2024-03-02T06:43:43.243Z,22.38
2024-03-02T06:46:11.399Z,22.60
2024-03-02T06:48:39.282Z,22.23
2024-03-02T06:51:07.160Z,21.23
2024-03-02T06:53:35.750Z,21.95
2024-03-02T06:56:03.579Z,20.27
2024-03-02T06:58:33.724Z,22.95
2024-03-02T07:01:01.774Z,21.00
2024-03-02T07:03:29.848Z,21.00
2024-03-02T07:05:58.465Z,22.00
2024-03-02T07:08:26.456Z,22.50
2024-03-02T07:10:54.267Z,22.92
2024-03-02T07:13:22.424Z,20.55
2024-03-02T07:16:16.789Z,21.17
2024-03-02T07:18:52.310Z,20.40
2024-03-02T07:21:20.280Z,22.02
2024-03-02T07:23:51.043Z,22.77
2024-03-02T07:28:51.122Z,23.73
2024-03-02T07:31:20.274Z,22.40
2024-03-02T07:33:48.512Z,25.02
2024-03-02T07:36:20.775Z,26.30
2024-03-02T07:38:51.380Z,28.70
2024-03-02T07:41:19.164Z,27.88
2024-03-02T07:43:47.066Z,27.05
2024-03-02T07:46:15.536Z,26.13
2024-03-02T07:48:45.597Z,27.30
2024-03-02T07:51:15.897Z,27.60
2024-03-02T07:53:44.530Z,26.00
2024-03-02T07:56:13.130Z,23.73
2024-03-02T07:58:41.985Z,27.42
2024-03-02T08:01:09.917Z,29.85
2024-03-02T08:03:37.902Z,28.65
2024-03-02T08:06:07.407Z,28.60
2024-03-02T08:08:35.228Z,25.83
2024-03-02T08:11:03.043Z,26.02
2024-03-02T08:13:30.905Z,22.65
2024-03-02T08:15:58.874Z,24.15
2024-03-02T08:18:26.975Z,22.33
2024-03-02T08:20:54.845Z,23.00
2024-03-02T08:23:24.068Z,21.95
2024-03-02T08:25:51.962Z,21.98
2024-03-02T08:28:20.153Z,19.70
2024-03-02T08:30:48.082Z,19.08
2024-03-02T08:33:15.984Z,19.25
2024-03-02T08:35:43.856Z,19.02
2024-03-02T08:38:11.678Z,18.38
2024-03-02T08:40:40.838Z,18.33
2024-03-02T08:43:09.262Z,18.45
2024-03-02T08:45:37.110Z,16.73
2024-03-02T08:48:05.805Z,16.95
2024-03-02T08:50:33.695Z,17.02
2024-03-02T08:53:01.458Z,17.88
2024-03-02T08:55:29.458Z,19.33
2024-03-02T08:57:58.723Z,19.50
2024-03-02T09:00:27.266Z,18.55
2024-03-02T09:02:55.090Z,19.35
2024-03-02T09:05:22.846Z,18.85
2024-03-02T09:07:51.566Z,18.58
2024-03-02T09:10:19.406Z,17.23
2024-03-02T09:12:47.193Z,18.45
2024-03-02T09:15:16.629Z,18.13
2024-03-02T09:17:44.404Z,15.77
2024-03-02T09:20:13.386Z,16.48
2024-03-02T09:22:41.230Z,17.58
2024-03-02T09:25:10.064Z,17.48
2024-03-02T09:27:38.918Z,17.45
2024-03-02T09:30:09.697Z,17.00
2024-03-02T09:32:39.852Z,15.25
2024-03-02T09:35:08.256Z,14.35
2024-03-02T09:37:36.043Z,13.20
2024-03-02T09:40:04.131Z,13.95
2024-03-02T09:42:33.464Z,15.20
2024-03-02T09:45:01.358Z,11.95
2024-03-02T09:47:29.198Z,10.98
2024-03-02T09:49:58.767Z,11.98
2024-03-02T09:52:26.566Z,11.27
2024-03-02T09:54:54.558Z,12.65
2024-03-02T09:57:22.516Z,12.27
2024-03-02T09:59:50.289Z,10.50
2024-03-02T10:02:17.997Z,10.88
2024-03-02T10:04:46.097Z,11.43
2024-03-02T10:07:16.890Z,11.13
2024-03-02T10:09:46.256Z,9.98
2024-03-02T10:12:16.001Z,9.15
2024-03-02T10:14:44.863Z,7.95
2024-03-02T10:17:14.415Z,8.63
2024-03-02T10:19:42.433Z,8.57
2024-03-02T10:22:11.778Z,7.25
2024-03-02T10:24:42.059Z,8.27
2024-03-02T10:27:11.382Z,7.90
2024-03-02T10:29:40.951Z,8.27
2024-03-02T10:32:12.228Z,9.18
2024-03-02T10:34:41.725Z,9.60
2024-03-02T10:37:09.685Z,8.77
2024-03-02T10:39:37.892Z,9.63
2024-03-02T10:42:08.248Z,9.10
2024-03-02T10:44:36.614Z,9.95
2024-03-02T10:47:06.751Z,9.23
2024-03-02T10:49:35.392Z,9.98
2024-03-02T10:52:03.613Z,9.88
2024-03-02T10:54:37.607Z,10.20
2024-03-02T10:57:10.798Z,10.43
2024-03-02T10:59:42.593Z,9.30
2024-03-02T11:02:14.443Z,9.77
2024-03-02T11:04:44.226Z,8.20
2024-03-02T11:07:13.599Z,8.02
2024-03-02T11:09:45.530Z,8.73
2024-03-02T11:12:21.465Z,9.32
2024-03-02T11:14:49.323Z,8.93
2024-03-02T11:17:18.823Z,9.18
2024-03-02T11:19:47.506Z,8.98
2024-03-02T11:22:16.972Z,8.90
2024-03-02T11:24:49.458Z,9.98
2024-03-02T11:27:57.415Z,9.95
2024-03-02T11:30:54.281Z,10.15
2024-03-02T11:33:28.557Z,10.35
2024-03-02T11:35:57.977Z,10.18
2024-03-02T11:38:30.095Z,9.52
2024-03-02T11:40:58.503Z,8.35
2024-03-02T11:43:34.219Z,8.40
2024-03-02T11:46:05.474Z,7.95
2024-03-02T11:48:34.188Z,8.55
2024-03-02T11:51:03.122Z,7.88
2024-03-02T11:53:35.530Z,8.85
2024-03-02T11:56:04.451Z,8.55
2024-03-02T11:58:34.663Z,10.23
2024-03-02T12:01:03.741Z,9.02
2024-03-02T12:03:31.641Z,9.95
2024-03-02T12:06:01.515Z,9.30
2024-03-02T12:08:29.871Z,8.50
2024-03-02T12:10:58.890Z,6.90
2024-03-02T12:13:26.954Z,7.85
2024-03-02T12:15:58.217Z,9.60
2024-03-02T12:18:26.878Z,7.22
2024-03-02T12:20:58.540Z,9.55
2024-03-02T12:23:27.432Z,9.48
2024-03-02T12:25:55.591Z,10.70
2024-03-02T12:28:23.582Z,10.85
2024-03-02T12:30:51.888Z,10.30
2024-03-02T12:33:22.547Z,11.88
2024-03-02T12:35:51.521Z,11.90
2024-03-02T12:38:19.396Z,11.52
2024-03-02T12:40:49.583Z,11.20
2024-03-02T12:43:17.434Z,11.35
2024-03-02T12:45:45.305Z,10.93
2024-03-02T12:48:13.200Z,10.75
2024-03-02T12:50:42.582Z,9.98
2024-03-02T12:53:16.930Z,8.98
2024-03-02T12:55:45.685Z,8.30
2024-03-02T12:58:19.213Z,8.07
2024-03-02T13:00:47.230Z,8.57
2024-03-02T13:03:16.338Z,8.55
2024-03-02T13:05:50.870Z,6.40
2024-03-02T13:08:18.935Z,6.47
2024-03-02T13:10:46.941Z,5.35
2024-03-02T13:13:16.003Z,5.35
2024-03-02T13:15:44.337Z,4.93
2024-03-02T13:18:13.118Z,4.70
2024-03-02T13:20:41.164Z,4.60
2024-03-02T13:23:11.367Z,4.80
2024-03-02T13:25:39.141Z,5.30
2024-03-02T13:28:07.804Z,5.10
2024-03-02T13:30:35.744Z,7.57
2024-03-02T13:33:03.555Z,5.05
2024-03-02T13:35:33.331Z,5.47
2024-03-02T13:38:01.089Z,5.63
2024-03-02T13:40:32.599Z,28.13
2024-03-02T13:43:00.660Z,4.97
2024-03-02T13:45:29.056Z,5.90
2024-03-02T13:47:57.365Z,6.85
2024-03-02T13:50:25.366Z,7.15
2024-03-02T13:52:53.240Z,7.35
2024-03-02T13:55:21.305Z,7.65
2024-03-02T13:57:51.292Z,8.55
2024-03-02T14:00:20.177Z,8.02
2024-03-02T14:02:50.636Z,8.10
2024-03-02T14:05:18.520Z,7.57
2024-03-02T14:07:46.290Z,7.55
2024-03-02T14:10:14.806Z,8.23
2024-03-02T14:12:43.509Z,7.63
2024-03-02T14:15:13.265Z,15.50
2024-03-02T14:17:41.200Z,7.30
2024-03-02T14:20:11.478Z,12.43
2024-03-02T14:22:39.498Z,13.68
2024-03-02T14:25:07.903Z,6.55
2024-03-02T14:27:50.863Z,24.08
2024-03-02T14:30:26.232Z,6.07
2024-03-02T14:32:54.373Z,34.58
2024-03-02T14:35:23.908Z,6.40
2024-03-02T14:37:54.087Z,7.55
2024-03-02T14:40:22.967Z,7.75
2024-03-02T14:42:50.875Z,48.38
2024-03-02T14:45:18.833Z,7.30
2024-03-02T14:47:48.392Z,7.97
2024-03-02T14:50:17.850Z,119.82
2024-03-02T14:52:47.678Z,8.02
2024-03-02T14:55:15.754Z,7.80
2024-03-02T14:57:44.457Z,41.65
2024-03-02T15:00:13.350Z,7.55
2024-03-02T15:02:41.252Z,7.57
2024-03-02T15:05:11.151Z,6.88
2024-03-02T15:07:39.740Z,7.25
2024-03-02T15:10:09.576Z,7.45
2024-03-02T15:12:38.863Z,7.47
2024-03-02T15:15:07.846Z,8.27
2024-03-02T15:17:35.820Z,7.40
2024-03-02T15:20:05.629Z,7.68
2024-03-02T15:22:34.893Z,8.70
2024-03-02T15:25:02.743Z,8.60
2024-03-02T15:27:30.635Z,9.23
2024-03-02T15:29:58.927Z,9.07
2024-03-02T15:32:27.809Z,10.25
2024-03-02T15:34:55.769Z,9.57
2024-03-02T15:37:23.742Z,10.73
2024-03-02T15:39:53.020Z,11.68
2024-03-02T15:42:24.410Z,10.93
2024-03-02T15:44:52.226Z,10.73
2024-03-02T15:47:20.057Z,11.48
2024-03-02T15:49:47.891Z,10.32
2024-03-02T15:52:19.345Z,13.88
2024-03-02T15:54:47.359Z,13.13
2024-03-02T15:57:17.464Z,13.23
2024-03-02T15:59:45.542Z,15.02
2024-03-02T16:02:13.463Z,14.45
2024-03-02T16:04:41.292Z,14.93
2024-03-02T16:07:09.445Z,14.75
2024-03-02T16:09:37.454Z,16.27
2024-03-02T16:12:06.177Z,15.32
2024-03-02T16:14:36.559Z,15.43
2024-03-02T16:17:06.536Z,16.00
2024-03-02T16:19:35.371Z,16.60
2024-03-02T16:22:03.331Z,15.50
2024-03-02T16:24:31.343Z,15.50
2024-03-02T16:26:59.183Z,16.42
2024-03-02T16:29:26.977Z,16.02
2024-03-02T16:31:57.262Z,15.30
2024-03-02T16:34:25.104Z,16.63
2024-03-02T16:36:53.014Z,17.05
2024-03-02T16:39:20.836Z,15.70
2024-03-02T16:41:48.757Z,16.35
2024-03-02T16:44:16.567Z,16.35
2024-03-02T16:46:46.251Z,16.67
2024-03-02T16:49:15.603Z,16.25
2024-03-02T16:51:44.465Z,17.10
2024-03-02T16:54:12.553Z,16.42
2024-03-02T16:56:41.268Z,18.00
2024-03-02T16:59:09.170Z,18.95
2024-03-02T17:01:37.302Z,17.45
2024-03-02T17:04:07.550Z,19.17
2024-03-02T17:06:37.182Z,19.00
2024-03-02T17:09:05.279Z,17.88
2024-03-02T17:11:33.140Z,18.50
2024-03-02T17:14:01.144Z,18.42
2024-03-02T17:16:29.047Z,20.23
2024-03-02T17:18:56.977Z,20.88
2024-03-02T17:21:24.815Z,21.30
2024-03-02T17:23:54.037Z,22.55
2024-03-02T17:26:22.145Z,23.00
2024-03-02T17:28:49.959Z,22.45
2024-03-02T17:31:17.800Z,22.98
2024-03-02T17:33:47.514Z,22.55
2024-03-02T17:36:15.519Z,23.90
2024-03-02T17:38:43.609Z,24.45
2024-03-02T17:41:12.751Z,24.65
2024-03-02T17:43:41.352Z,22.92
2024-03-02T17:46:09.279Z,25.67
2024-03-02T17:48:37.166Z,24.58
2024-03-02T17:51:08.488Z,24.95
2024-03-02T17:53:36.292Z,23.83
2024-03-02T17:56:04.476Z,25.42
2024-03-02T17:58:34.668Z,24.15
2024-03-02T18:01:02.747Z,25.25
2024-03-02T18:03:30.736Z,25.80
2024-03-02T18:05:58.524Z,25.65
2024-03-02T18:08:26.440Z,25.13
2024-03-02T18:10:54.282Z,25.33
2024-03-02T18:13:22.114Z,25.73
2024-03-02T18:15:51.866Z,25.23
2024-03-02T18:18:19.893Z,25.02
2024-03-02T18:20:47.778Z,26.92
2024-03-02T18:23:15.617Z,26.38
2024-03-02T18:25:47.389Z,27.60
2024-03-02T18:28:15.494Z,27.92
2024-03-02T18:30:43.396Z,28.42
2024-03-02T18:33:12.578Z,32.30
2024-03-02T18:35:40.513Z,31.58
2024-03-02T18:38:08.324Z,31.85
2024-03-02T18:40:36.231Z,33.28
2024-03-02T18:43:07.367Z,30.90
2024-03-02T18:45:35.456Z,30.25
2024-03-02T18:48:04.723Z,31.35
2024-03-02T18:50:34.112Z,31.58
2024-03-02T18:53:02.025Z,34.58
2024-03-02T18:55:29.820Z,32.55
2024-03-02T18:57:58.297Z,33.42
2024-03-02T19:00:26.244Z,33.30
2024-03-02T19:02:54.201Z,32.80
2024-03-02T19:05:22.015Z,29.23
2024-03-02T19:07:51.477Z,29.70
2024-03-02T19:10:19.235Z,29.23
2024-03-02T19:12:48.809Z,29.70
2024-03-02T19:15:18.948Z,25.75
2024-03-02T19:17:49.634Z,27.40
2024-03-02T19:20:18.569Z,26.02
2024-03-02T19:22:46.356Z,27.02
2024-03-02T19:25:15.911Z,26.77
2024-03-02T19:27:43.948Z,26.98
2024-03-02T19:30:12.890Z,25.70
2024-03-02T19:32:41.750Z,27.33
2024-03-02T19:35:10.196Z,26.42
2024-03-02T19:37:39.264Z,26.48
2024-03-02T19:40:09.673Z,26.67
2024-03-02T19:42:38.963Z,29.05
2024-03-02T19:45:07.646Z,29.40
2024-03-02T19:47:36.205Z,30.30
2024-03-02T19:50:05.530Z,28.73
2024-03-02T19:52:33.611Z,28.33
2024-03-02T19:55:06.298Z,28.40
2024-03-02T19:57:36.977Z,25.50
2024-03-02T20:00:07.882Z,27.58
2024-03-02T20:02:35.835Z,29.05
2024-03-02T20:05:05.200Z,28.95
2024-03-02T20:07:33.110Z,30.55
2024-03-02T20:10:01.016Z,32.85
2024-03-02T20:12:29.092Z,31.92
2024-03-02T20:14:56.892Z,31.23
2024-03-02T20:17:26.135Z,32.20
2024-03-02T20:19:54.736Z,32.08
2024-03-02T20:22:22.463Z,33.28
2024-03-02T20:24:52.270Z,32.65
2024-03-02T20:27:20.912Z,34.10
2024-03-02T20:29:48.773Z,43.60
2024-03-02T20:32:18.761Z,37.63
2024-03-02T20:34:47.932Z,33.80
2024-03-02T20:37:15.896Z,33.40
2024-03-02T20:39:43.786Z,34.45
2024-03-02T20:42:11.551Z,34.35
2024-03-02T20:44:39.348Z,35.10
2024-03-02T20:47:07.132Z,35.58
2024-03-02T20:49:34.936Z,32.85
2024-03-02T20:52:04.277Z,32.65
2024-03-02T20:54:32.155Z,36.72
2024-03-02T20:57:00.242Z,40.92
2024-03-02T20:59:28.457Z,36.13
2024-03-02T21:01:56.202Z,34.60
2024-03-02T21:04:24.142Z,34.80
2024-03-02T21:06:52.182Z,34.17
2024-03-02T21:09:21.427Z,42.83
2024-03-02T21:11:49.849Z,40.28
2024-03-02T21:14:17.615Z,39.58
2024-03-02T21:16:45.355Z,38.20
2024-03-02T21:19:13.726Z,32.15
2024-03-02T21:21:43.543Z,32.65
2024-03-02T21:24:11.356Z,33.22
2024-03-02T21:26:44.440Z,36.22
2024-03-02T21:29:12.941Z,38.22
2024-03-02T21:31:41.204Z,36.53
2024-03-02T21:34:09.041Z,34.00
2024-03-02T21:36:38.280Z,32.67
2024-03-02T21:39:06.335Z,34.17
2024-03-02T21:41:34.251Z,33.88
2024-03-02T21:44:03.484Z,39.47
2024-03-02T21:46:31.190Z,37.13
2024-03-02T21:49:00.124Z,36.90
2024-03-02T21:51:28.234Z,37.97
2024-03-02T21:53:57.123Z,45.17
2024-03-02T21:56:24.894Z,42.00
2024-03-02T21:58:53.087Z,41.15
2024-03-02T22:01:22.360Z,39.22
2024-03-02T22:03:50.334Z,38.38
2024-03-02T22:06:18.167Z,35.85
2024-03-02T22:08:45.968Z,35.40
2024-03-02T22:11:13.924Z,33.92
2024-03-02T22:13:41.715Z,34.30
2024-03-02T22:16:09.520Z,34.38
2024-03-02T22:18:38.720Z,35.47
2024-03-02T22:21:06.646Z,38.58
2024-03-02T22:23:34.578Z,38.33
2024-03-02T22:26:02.314Z,36.45
2024-03-02T22:28:30.189Z,35.38
2024-03-02T22:30:58.053Z,40.00
2024-03-02T22:33:26.163Z,40.63
2024-03-02T22:35:57.571Z,44.15
2024-03-02T22:38:25.812Z,42.60
2024-03-02T22:40:53.951Z,38.80
2024-03-02T22:43:23.935Z,35.08
2024-03-02T22:45:51.701Z,36.60
2024-03-02T22:48:19.505Z,38.65
2024-03-02T22:50:47.665Z,41.22
2024-03-02T22:53:16.824Z,46.65
2024-03-02T22:55:44.591Z,43.95
2024-03-02T22:58:12.468Z,40.90
2024-03-02T23:00:49.235Z,39.58
2024-03-02T23:03:18.975Z,38.70
2024-03-02T23:05:46.886Z,39.13
2024-03-02T23:08:18.044Z,39.35
2024-03-02T23:10:46.502Z,35.53
2024-03-02T23:13:14.884Z,38.75
2024-03-02T23:15:42.721Z,38.92
2024-03-02T23:18:10.528Z,37.00
2024-03-02T23:20:38.281Z,38.35
2024-03-02T23:23:06.916Z,36.67
2024-03-02T23:25:36.343Z,34.72
2024-03-02T23:28:04.752Z,35.70
2024-03-02T23:30:33.230Z,38.15
2024-03-02T23:33:01.087Z,38.75
2024-03-02T23:35:28.977Z,39.40
2024-03-02T23:37:56.732Z,39.08
2024-03-02T23:40:53.381Z,37.40
2024-03-02T23:43:22.576Z,36.63
2024-03-02T23:45:50.361Z,36.65
2024-03-02T23:48:18.287Z,36.60
2024-03-02T23:50:46.034Z,34.58
2024-03-02T23:53:13.828Z,33.85
2024-03-02T23:55:47.756Z,35.38
2024-03-02T23:58:20.374Z,37.45
